sensor_id;sensor_type;location;lat;lon;timestamp;temperature;humidity
63260;DHT22;49390;51.380;0.098;2023-12-04T00:01:50;7.90;99.90
63260;DHT22;49390;51.380;0.098;2023-12-04T00:04:18;7.90;99.90
63260;DHT22;49390;51.380;0.098;2023-12-04T00:06:46;7.80;99.90
63260;DHT22;49390;51.380;0.098;2023-12-04T00:09:14;7.80;99.90
63260;DHT22;49390;51.380;0.098;2023-12-04T00:11:42;7.80;99.90
63260;DHT22;49390;51.380;0.098;2023-12-04T00:14:10;7.80;99.90
63260;DHT22;49390;51.380;0.098;2023-12-04T00:16:37;7.80;99.90
63260;DHT22;49390;51.380;0.098;2023-12-04T00:19:05;7.70;99.90
63260;DHT22;49390;51.380;0.098;2023-12-04T00:21:34;7.70;99.90
63260;DHT22;49390;51.380;0.098;2023-12-04T00:24:03;7.70;99.90
63260;DHT22;49390;51.380;0.098;2023-12-04T00:26:31;7.70;99.90
63260;DHT22;49390;51.380;0.098;2023-12-04T00:28:59;7.60;99.90
63260;DHT22;49390;51.380;0.098;2023-12-04T00:31:27;7.60;99.90
63260;DHT22;49390;51.380;0.098;2023-12-04T00:33:55;7.60;99.90
63260;DHT22;49390;51.380;0.098;2023-12-04T00:36:23;7.60;99.90
63260;DHT22;49390;51.380;0.098;2023-12-04T00:38:51;7.50;99.90
63260;DHT22;49390;51.380;0.098;2023-12-04T00:41:18;7.50;99.90
63260;DHT22;49390;51.380;0.098;2023-12-04T00:43:46;7.40;99.90
63260;DHT22;49390;51.380;0.098;2023-12-04T00:46:14;7.40;99.90
63260;DHT22;49390;51.380;0.098;2023-12-04T00:48:42;7.40;99.90
63260;DHT22;49390;51.380;0.098;2023-12-04T00:51:09;7.30;99.90
63260;DHT22;49390;51.380;0.098;2023-12-04T00:53:37;7.30;99.90
63260;DHT22;49390;51.380;0.098;2023-12-04T00:56:05;7.30;99.90
63260;DHT22;49390;51.380;0.098;2023-12-04T00:58:33;7.30;99.90
63260;DHT22;49390;51.380;0.098;2023-12-04T01:01:01;7.30;99.90
63260;DHT22;49390;51.380;0.098;2023-12-04T01:03:29;7.20;99.90
63260;DHT22;49390;51.380;0.098;2023-12-04T01:06:00;7.20;99.90
63260;DHT22;49390;51.380;0.098;2023-12-04T01:08:28;7.20;99.90
63260;DHT22;49390;51.380;0.098;2023-12-04T01:10:56;7.20;99.90
63260;DHT22;49390;51.380;0.098;2023-12-04T01:13:23;7.20;99.90
63260;DHT22;49390;51.380;0.098;2023-12-04T01:15:51;7.10;99.90
63260;DHT22;49390;51.380;0.098;2023-12-04T01:18:19;7.10;99.90
63260;DHT22;49390;51.380;0.098;2023-12-04T01:20:47;7.10;99.90
63260;DHT22;49390;51.380;0.098;2023-12-04T01:23:15;7.10;99.90
63260;DHT22;49390;51.380;0.098;2023-12-04T01:25:43;7.10;99.90
63260;DHT22;49390;51.380;0.098;2023-12-04T01:28:12;7.10;99.90
63260;DHT22;49390;51.380;0.098;2023-12-04T01:30:40;7.10;99.90
63260;DHT22;49390;51.380;0.098;2023-12-04T01:33:08;7.00;99.90
63260;DHT22;49390;51.380;0.098;2023-12-04T01:35:36;7.00;99.90
63260;DHT22;49390;51.380;0.098;2023-12-04T01:38:04;7.00;99.90
63260;DHT22;49390;51.380;0.098;2023-12-04T01:40:31;7.00;99.90
63260;DHT22;49390;51.380;0.098;2023-12-04T01:42:59;7.00;99.90
63260;DHT22;49390;51.380;0.098;2023-12-04T01:45:27;7.00;99.90
63260;DHT22;49390;51.380;0.098;2023-12-04T01:47:55;6.90;99.90
63260;DHT22;49390;51.380;0.098;2023-12-04T01:50:24;6.90;99.90
63260;DHT22;49390;51.380;0.098;2023-12-04T01:52:52;6.90;99.90
63260;DHT22;49390;51.380;0.098;2023-12-04T01:55:20;6.90;99.90
63260;DHT22;49390;51.380;0.098;2023-12-04T01:57:49;6.80;99.90
63260;DHT22;49390;51.380;0.098;2023-12-04T02:00:17;6.80;99.90
63260;DHT22;49390;51.380;0.098;2023-12-04T02:02:48;6.80;99.90
63260;DHT22;49390;51.380;0.098;2023-12-04T02:05:16;6.80;99.90
63260;DHT22;49390;51.380;0.098;2023-12-04T02:07:44;6.80;99.90
63260;DHT22;49390;51.380;0.098;2023-12-04T02:10:13;6.70;99.90
63260;DHT22;49390;51.380;0.098;2023-12-04T02:12:41;6.80;99.90
63260;DHT22;49390;51.380;0.098;2023-12-04T02:15:09;6.70;99.90
63260;DHT22;49390;51.380;0.098;2023-12-04T02:17:36;6.70;99.90
63260;DHT22;49390;51.380;0.098;2023-12-04T02:20:05;6.60;99.90
63260;DHT22;49390;51.380;0.098;2023-12-04T02:22:33;6.60;99.90
63260;DHT22;49390;51.380;0.098;2023-12-04T02:25:01;6.70;99.90
63260;DHT22;49390;51.380;0.098;2023-12-04T02:27:37;6.60;99.90
63260;DHT22;49390;51.380;0.098;2023-12-04T02:30:06;6.30;99.90
63260;DHT22;49390;51.380;0.098;2023-12-04T02:32:38;6.60;99.90
63260;DHT22;49390;51.380;0.098;2023-12-04T02:35:10;6.60;99.90
63260;DHT22;49390;51.380;0.098;2023-12-04T02:37:39;6.60;99.90
63260;DHT22;49390;51.380;0.098;2023-12-04T02:40:08;6.60;99.90
63260;DHT22;49390;51.380;0.098;2023-12-04T02:42:36;6.60;99.90
63260;DHT22;49390;51.380;0.098;2023-12-04T02:45:04;6.60;99.90
63260;DHT22;49390;51.380;0.098;2023-12-04T02:47:32;6.60;99.90
63260;DHT22;49390;51.380;0.098;2023-12-04T02:50:00;6.70;99.90
63260;DHT22;49390;51.380;0.098;2023-12-04T02:52:28;6.60;99.90
63260;DHT22;49390;51.380;0.098;2023-12-04T02:57:26;6.60;99.90
63260;DHT22;49390;51.380;0.098;2023-12-04T02:59:54;6.60;99.90
63260;DHT22;49390;51.380;0.098;2023-12-04T03:02:21;6.60;99.90
63260;DHT22;49390;51.380;0.098;2023-12-04T03:04:49;6.60;99.90
63260;DHT22;49390;51.380;0.098;2023-12-04T03:07:17;6.60;99.90
63260;DHT22;49390;51.380;0.098;2023-12-04T03:09:47;6.70;99.90
63260;DHT22;49390;51.380;0.098;2023-12-04T03:12:17;6.60;99.90
63260;DHT22;49390;51.380;0.098;2023-12-04T03:14:44;6.70;99.90
63260;DHT22;49390;51.380;0.098;2023-12-04T03:17:12;6.70;99.90
63260;DHT22;49390;51.380;0.098;2023-12-04T03:19:40;6.70;99.90
63260;DHT22;49390;51.380;0.098;2023-12-04T03:22:08;6.70;99.90
63260;DHT22;49390;51.380;0.098;2023-12-04T03:24:36;6.70;99.90
63260;DHT22;49390;51.380;0.098;2023-12-04T03:27:03;6.70;99.90
63260;DHT22;49390;51.380;0.098;2023-12-04T03:29:31;6.70;99.90
63260;DHT22;49390;51.380;0.098;2023-12-04T03:31:59;6.70;99.90
63260;DHT22;49390;51.380;0.098;2023-12-04T03:34:27;6.80;99.90
63260;DHT22;49390;51.380;0.098;2023-12-04T03:36:55;6.80;99.90
63260;DHT22;49390;51.380;0.098;2023-12-04T03:39:22;6.80;99.90
63260;DHT22;49390;51.380;0.098;2023-12-04T03:41:50;6.80;99.90
63260;DHT22;49390;51.380;0.098;2023-12-04T03:44:18;6.80;99.90
63260;DHT22;49390;51.380;0.098;2023-12-04T03:46:46;6.80;99.90
63260;DHT22;49390;51.380;0.098;2023-12-04T03:49:14;6.80;99.90
63260;DHT22;49390;51.380;0.098;2023-12-04T03:51:42;6.80;99.90
63260;DHT22;49390;51.380;0.098;2023-12-04T03:54:09;6.80;99.90
63260;DHT22;49390;51.380;0.098;2023-12-04T03:56:37;6.80;99.90
63260;DHT22;49390;51.380;0.098;2023-12-04T03:59:05;6.80;99.90
63260;DHT22;49390;51.380;0.098;2023-12-04T04:01:32;6.90;99.90
63260;DHT22;49390;51.380;0.098;2023-12-04T04:04:00;6.90;99.90
63260;DHT22;49390;51.380;0.098;2023-12-04T04:06:28;6.90;99.90
63260;DHT22;49390;51.380;0.098;2023-12-04T04:08:56;6.90;99.90
63260;DHT22;49390;51.380;0.098;2023-12-04T04:11:23;6.90;99.90
63260;DHT22;49390;51.380;0.098;2023-12-04T04:13:51;6.90;99.90
63260;DHT22;49390;51.380;0.098;2023-12-04T04:16:19;6.90;99.90
63260;DHT22;49390;51.380;0.098;2023-12-04T04:18:47;6.90;99.90
63260;DHT22;49390;51.380;0.098;2023-12-04T04:21:15;6.90;99.90
63260;DHT22;49390;51.380;0.098;2023-12-04T04:23:43;6.90;99.90
63260;DHT22;49390;51.380;0.098;2023-12-04T04:26:10;7.00;99.90
63260;DHT22;49390;51.380;0.098;2023-12-04T04:28:38;6.90;99.90
63260;DHT22;49390;51.380;0.098;2023-12-04T04:31:06;7.00;99.90
63260;DHT22;49390;51.380;0.098;2023-12-04T04:33:34;7.00;99.90
63260;DHT22;49390;51.380;0.098;2023-12-04T04:36:02;7.00;99.90
63260;DHT22;49390;51.380;0.098;2023-12-04T04:38:30;6.90;99.90
63260;DHT22;49390;51.380;0.098;2023-12-04T04:40:57;6.90;99.90
63260;DHT22;49390;51.380;0.098;2023-12-04T04:43:25;6.90;99.90
63260;DHT22;49390;51.380;0.098;2023-12-04T04:45:54;6.90;99.90
63260;DHT22;49390;51.380;0.098;2023-12-04T04:48:22;6.90;99.90
63260;DHT22;49390;51.380;0.098;2023-12-04T04:50:49;6.90;99.90
63260;DHT22;49390;51.380;0.098;2023-12-04T04:53:17;6.90;99.90
63260;DHT22;49390;51.380;0.098;2023-12-04T04:55:45;6.90;99.90
63260;DHT22;49390;51.380;0.098;2023-12-04T04:58:16;6.90;99.90
63260;DHT22;49390;51.380;0.098;2023-12-04T05:00:45;6.90;99.90
63260;DHT22;49390;51.380;0.098;2023-12-04T05:03:13;6.80;99.90
63260;DHT22;49390;51.380;0.098;2023-12-04T05:05:41;6.80;99.90
63260;DHT22;49390;51.380;0.098;2023-12-04T05:08:09;6.80;99.90
63260;DHT22;49390;51.380;0.098;2023-12-04T05:10:38;6.80;99.90
63260;DHT22;49390;51.380;0.098;2023-12-04T05:13:07;6.80;99.90
63260;DHT22;49390;51.380;0.098;2023-12-04T05:15:35;6.80;99.90
63260;DHT22;49390;51.380;0.098;2023-12-04T05:18:03;6.80;99.90
63260;DHT22;49390;51.380;0.098;2023-12-04T05:20:30;6.80;99.90
63260;DHT22;49390;51.380;0.098;2023-12-04T05:22:58;6.80;99.90
63260;DHT22;49390;51.380;0.098;2023-12-04T05:25:26;6.80;99.90
63260;DHT22;49390;51.380;0.098;2023-12-04T05:28:04;6.80;99.90
63260;DHT22;49390;51.380;0.098;2023-12-04T05:30:32;6.80;99.90
63260;DHT22;49390;51.380;0.098;2023-12-04T05:33:00;6.80;99.90
63260;DHT22;49390;51.380;0.098;2023-12-04T05:35:27;6.70;99.90
63260;DHT22;49390;51.380;0.098;2023-12-04T05:37:56;6.80;99.90
63260;DHT22;49390;51.380;0.098;2023-12-04T05:40:23;6.80;99.90
63260;DHT22;49390;51.380;0.098;2023-12-04T05:42:51;6.70;99.90
63260;DHT22;49390;51.380;0.098;2023-12-04T05:45:19;6.80;99.90
63260;DHT22;49390;51.380;0.098;2023-12-04T05:47:47;6.80;99.90
63260;DHT22;49390;51.380;0.098;2023-12-04T05:50:14;6.80;99.90
63260;DHT22;49390;51.380;0.098;2023-12-04T05:52:42;6.80;99.90
63260;DHT22;49390;51.380;0.098;2023-12-04T05:55:10;6.80;99.90
63260;DHT22;49390;51.380;0.098;2023-12-04T05:57:39;6.80;99.90
63260;DHT22;49390;51.380;0.098;2023-12-04T06:00:08;6.80;99.90
63260;DHT22;49390;51.380;0.098;2023-12-04T06:02:42;6.90;99.90
63260;DHT22;49390;51.380;0.098;2023-12-04T06:05:10;6.80;99.90
63260;DHT22;49390;51.380;0.098;2023-12-04T06:07:38;6.90;99.90
63260;DHT22;49390;51.380;0.098;2023-12-04T06:10:06;6.90;99.90
63260;DHT22;49390;51.380;0.098;2023-12-04T06:12:35;6.90;99.90
63260;DHT22;49390;51.380;0.098;2023-12-04T06:15:04;6.90;99.90
63260;DHT22;49390;51.380;0.098;2023-12-04T06:17:32;6.90;99.90
63260;DHT22;49390;51.380;0.098;2023-12-04T06:20:00;6.90;99.90
63260;DHT22;49390;51.380;0.098;2023-12-04T06:22:28;6.90;99.90
63260;DHT22;49390;51.380;0.098;2023-12-04T06:24:56;6.90;99.90
63260;DHT22;49390;51.380;0.098;2023-12-04T06:27:24;6.90;99.90
63260;DHT22;49390;51.380;0.098;2023-12-04T06:29:52;6.90;99.90
63260;DHT22;49390;51.380;0.098;2023-12-04T06:34:51;6.90;99.90
63260;DHT22;49390;51.380;0.098;2023-12-04T06:37:20;6.90;99.90
63260;DHT22;49390;51.380;0.098;2023-12-04T06:39:48;6.90;99.90
63260;DHT22;49390;51.380;0.098;2023-12-04T06:42:17;6.90;99.90
63260;DHT22;49390;51.380;0.098;2023-12-04T06:44:45;6.90;99.90
63260;DHT22;49390;51.380;0.098;2023-12-04T06:47:17;6.90;99.90
63260;DHT22;49390;51.380;0.098;2023-12-04T06:49:45;6.90;99.90
63260;DHT22;49390;51.380;0.098;2023-12-04T06:52:13;6.80;99.90
63260;DHT22;49390;51.380;0.098;2023-12-04T06:54:41;6.90;99.90
63260;DHT22;49390;51.380;0.098;2023-12-04T06:59:32;6.90;99.90
63260;DHT22;49390;51.380;0.098;2023-12-04T07:02:00;6.90;99.90
63260;DHT22;49390;51.380;0.098;2023-12-04T07:04:29;6.90;99.90
63260;DHT22;49390;51.380;0.098;2023-12-04T07:08:50;6.90;99.90
63260;DHT22;49390;51.380;0.098;2023-12-04T07:11:18;6.90;99.90
63260;DHT22;49390;51.380;0.098;2023-12-04T07:13:46;6.90;99.90
63260;DHT22;49390;51.380;0.098;2023-12-04T07:16:14;6.90;99.90
63260;DHT22;49390;51.380;0.098;2023-12-04T07:18:42;6.90;99.90
63260;DHT22;49390;51.380;0.098;2023-12-04T07:21:10;6.90;99.90
63260;DHT22;49390;51.380;0.098;2023-12-04T07:23:37;6.90;99.90
63260;DHT22;49390;51.380;0.098;2023-12-04T07:26:05;6.90;99.90
63260;DHT22;49390;51.380;0.098;2023-12-04T07:28:34;6.90;99.90
63260;DHT22;49390;51.380;0.098;2023-12-04T07:31:02;6.90;99.90
63260;DHT22;49390;51.380;0.098;2023-12-04T07:33:30;6.90;99.90
63260;DHT22;49390;51.380;0.098;2023-12-04T07:35:58;6.90;99.90
63260;DHT22;49390;51.380;0.098;2023-12-04T07:38:26;6.90;99.90
63260;DHT22;49390;51.380;0.098;2023-12-04T07:40:56;6.90;99.90
63260;DHT22;49390;51.380;0.098;2023-12-04T07:43:23;6.90;99.90
63260;DHT22;49390;51.380;0.098;2023-12-04T07:45:51;6.90;99.90
63260;DHT22;49390;51.380;0.098;2023-12-04T07:48:19;7.00;99.90
63260;DHT22;49390;51.380;0.098;2023-12-04T07:50:47;6.90;99.90
63260;DHT22;49390;51.380;0.098;2023-12-04T07:53:15;6.90;99.90
63260;DHT22;49390;51.380;0.098;2023-12-04T07:55:43;6.90;99.90
63260;DHT22;49390;51.380;0.098;2023-12-04T07:58:11;7.00;99.90
63260;DHT22;49390;51.380;0.098;2023-12-04T08:00:39;7.00;99.90
63260;DHT22;49390;51.380;0.098;2023-12-04T08:03:07;6.90;99.90
63260;DHT22;49390;51.380;0.098;2023-12-04T08:05:35;7.00;99.90
63260;DHT22;49390;51.380;0.098;2023-12-04T08:08:03;7.00;99.90
63260;DHT22;49390;51.380;0.098;2023-12-04T08:10:31;7.00;99.90
63260;DHT22;49390;51.380;0.098;2023-12-04T08:12:59;7.00;99.90
63260;DHT22;49390;51.380;0.098;2023-12-04T08:15:28;7.00;99.90
63260;DHT22;49390;51.380;0.098;2023-12-04T08:17:55;7.00;99.90
63260;DHT22;49390;51.380;0.098;2023-12-04T08:20:25;7.00;99.90
63260;DHT22;49390;51.380;0.098;2023-12-04T08:23:05;7.00;99.90
63260;DHT22;49390;51.380;0.098;2023-12-04T08:25:34;7.00;99.90
63260;DHT22;49390;51.380;0.098;2023-12-04T08:28:04;7.00;99.90
63260;DHT22;49390;51.380;0.098;2023-12-04T08:30:32;7.10;99.90
63260;DHT22;49390;51.380;0.098;2023-12-04T08:33:00;7.10;99.90
63260;DHT22;49390;51.380;0.098;2023-12-04T08:35:28;7.10;99.90
63260;DHT22;49390;51.380;0.098;2023-12-04T08:37:55;7.10;99.90
63260;DHT22;49390;51.380;0.098;2023-12-04T08:40:24;7.10;99.90
63260;DHT22;49390;51.380;0.098;2023-12-04T08:42:51;7.20;99.90
63260;DHT22;49390;51.380;0.098;2023-12-04T08:45:20;7.20;99.90
63260;DHT22;49390;51.380;0.098;2023-12-04T08:47:47;7.20;99.90
63260;DHT22;49390;51.380;0.098;2023-12-04T08:50:17;7.30;99.90
63260;DHT22;49390;51.380;0.098;2023-12-04T08:52:45;7.30;99.90
63260;DHT22;49390;51.380;0.098;2023-12-04T08:55:13;7.30;99.90
63260;DHT22;49390;51.380;0.098;2023-12-04T08:57:41;7.40;99.90
63260;DHT22;49390;51.380;0.098;2023-12-04T09:00:09;7.40;99.90
63260;DHT22;49390;51.380;0.098;2023-12-04T09:02:37;7.40;99.90
63260;DHT22;49390;51.380;0.098;2023-12-04T09:05:16;7.30;99.90
63260;DHT22;49390;51.380;0.098;2023-12-04T09:07:44;7.30;99.90
63260;DHT22;49390;51.380;0.098;2023-12-04T09:12:42;7.30;99.90
63260;DHT22;49390;51.380;0.098;2023-12-04T09:15:10;7.30;99.90
63260;DHT22;49390;51.380;0.098;2023-12-04T09:17:39;7.30;99.90
63260;DHT22;49390;51.380;0.098;2023-12-04T09:20:10;7.30;99.90
63260;DHT22;49390;51.380;0.098;2023-12-04T09:22:38;7.30;99.90
63260;DHT22;49390;51.380;0.098;2023-12-04T09:25:20;7.40;99.90
63260;DHT22;49390;51.380;0.098;2023-12-04T09:27:48;7.30;99.90
63260;DHT22;49390;51.380;0.098;2023-12-04T09:30:20;7.40;99.90
63260;DHT22;49390;51.380;0.098;2023-12-04T09:32:48;7.40;99.90
63260;DHT22;49390;51.380;0.098;2023-12-04T09:35:17;7.40;99.90
63260;DHT22;49390;51.380;0.098;2023-12-04T09:37:45;7.40;99.90
63260;DHT22;49390;51.380;0.098;2023-12-04T09:40:13;7.40;99.90
63260;DHT22;49390;51.380;0.098;2023-12-04T09:42:41;7.40;99.90
63260;DHT22;49390;51.380;0.098;2023-12-04T09:45:10;7.50;99.90
63260;DHT22;49390;51.380;0.098;2023-12-04T09:47:38;7.50;99.90
63260;DHT22;49390;51.380;0.098;2023-12-04T09:50:07;7.50;99.90
63260;DHT22;49390;51.380;0.098;2023-12-04T09:52:35;7.50;99.90
63260;DHT22;49390;51.380;0.098;2023-12-04T09:55:04;7.50;99.90
63260;DHT22;49390;51.380;0.098;2023-12-04T09:57:33;7.50;99.90
63260;DHT22;49390;51.380;0.098;2023-12-04T10:00:03;7.60;99.90
63260;DHT22;49390;51.380;0.098;2023-12-04T10:02:39;7.60;99.90
63260;DHT22;49390;51.380;0.098;2023-12-04T10:05:08;7.60;99.90
63260;DHT22;49390;51.380;0.098;2023-12-04T10:07:36;7.60;99.90
63260;DHT22;49390;51.380;0.098;2023-12-04T10:10:04;7.60;99.90
63260;DHT22;49390;51.380;0.098;2023-12-04T10:12:36;7.60;99.90
63260;DHT22;49390;51.380;0.098;2023-12-04T10:15:07;7.60;99.90
63260;DHT22;49390;51.380;0.098;2023-12-04T10:17:55;7.60;99.90
63260;DHT22;49390;51.380;0.098;2023-12-04T10:20:23;7.70;99.90
63260;DHT22;49390;51.380;0.098;2023-12-04T10:23:00;7.70;99.90
63260;DHT22;49390;51.380;0.098;2023-12-04T10:25:30;7.70;99.90
63260;DHT22;49390;51.380;0.098;2023-12-04T10:28:09;7.70;99.90
63260;DHT22;49390;51.380;0.098;2023-12-04T10:30:38;7.70;99.90
63260;DHT22;49390;51.380;0.098;2023-12-04T10:33:07;7.70;99.90
63260;DHT22;49390;51.380;0.098;2023-12-04T10:35:36;7.70;99.90
63260;DHT22;49390;51.380;0.098;2023-12-04T10:38:05;7.80;99.90
63260;DHT22;49390;51.380;0.098;2023-12-04T10:40:35;7.70;99.90
63260;DHT22;49390;51.380;0.098;2023-12-04T10:45:37;7.70;99.90
63260;DHT22;49390;51.380;0.098;2023-12-04T10:48:06;7.80;99.90
63260;DHT22;49390;51.380;0.098;2023-12-04T10:50:36;7.80;99.90
63260;DHT22;49390;51.380;0.098;2023-12-04T10:53:08;7.80;99.90
63260;DHT22;49390;51.380;0.098;2023-12-04T10:55:37;7.90;99.90
63260;DHT22;49390;51.380;0.098;2023-12-04T10:58:09;7.80;99.90
63260;DHT22;49390;51.380;0.098;2023-12-04T11:00:47;7.80;99.90
63260;DHT22;49390;51.380;0.098;2023-12-04T11:03:36;7.90;99.90
63260;DHT22;49390;51.380;0.098;2023-12-04T11:06:07;7.90;99.90
63260;DHT22;49390;51.380;0.098;2023-12-04T11:08:37;7.90;99.90
63260;DHT22;49390;51.380;0.098;2023-12-04T11:11:10;7.90;99.90
63260;DHT22;49390;51.380;0.098;2023-12-04T11:13:43;8.00;99.90
63260;DHT22;49390;51.380;0.098;2023-12-04T11:16:28;7.90;99.90
63260;DHT22;49390;51.380;0.098;2023-12-04T11:19:01;8.00;99.90
63260;DHT22;49390;51.380;0.098;2023-12-04T11:21:33;8.00;99.90
63260;DHT22;49390;51.380;0.098;2023-12-04T11:24:02;8.00;99.90
63260;DHT22;49390;51.380;0.098;2023-12-04T11:26:31;8.10;99.90
63260;DHT22;49390;51.380;0.098;2023-12-04T11:29:00;8.20;99.90
63260;DHT22;49390;51.380;0.098;2023-12-04T11:31:28;8.30;99.90
63260;DHT22;49390;51.380;0.098;2023-12-04T11:34:02;8.30;99.90
63260;DHT22;49390;51.380;0.098;2023-12-04T11:36:31;8.20;99.90
63260;DHT22;49390;51.380;0.098;2023-12-04T11:39:00;8.30;99.90
63260;DHT22;49390;51.380;0.098;2023-12-04T11:41:30;8.30;99.90
63260;DHT22;49390;51.380;0.098;2023-12-04T11:43:58;8.30;99.90
63260;DHT22;49390;51.380;0.098;2023-12-04T11:46:27;8.30;99.90
63260;DHT22;49390;51.380;0.098;2023-12-04T11:48:57;8.20;99.90
63260;DHT22;49390;51.380;0.098;2023-12-04T11:51:45;8.30;99.90
63260;DHT22;49390;51.380;0.098;2023-12-04T11:54:17;8.30;99.90
63260;DHT22;49390;51.380;0.098;2023-12-04T11:59:39;8.30;99.90
63260;DHT22;49390;51.380;0.098;2023-12-04T12:02:08;8.30;99.90
63260;DHT22;49390;51.380;0.098;2023-12-04T12:04:37;8.30;99.90
63260;DHT22;49390;51.380;0.098;2023-12-04T12:07:05;8.40;99.90
63260;DHT22;49390;51.380;0.098;2023-12-04T12:09:34;8.30;99.90
63260;DHT22;49390;51.380;0.098;2023-12-04T12:12:03;8.40;99.90
63260;DHT22;49390;51.380;0.098;2023-12-04T12:14:31;8.40;99.90
63260;DHT22;49390;51.380;0.098;2023-12-04T12:17:00;8.40;99.90
63260;DHT22;49390;51.380;0.098;2023-12-04T12:19:29;8.40;99.90
63260;DHT22;49390;51.380;0.098;2023-12-04T12:21:57;8.30;99.90
63260;DHT22;49390;51.380;0.098;2023-12-04T12:24:25;8.40;99.90
63260;DHT22;49390;51.380;0.098;2023-12-04T12:26:54;8.40;99.90
63260;DHT22;49390;51.380;0.098;2023-12-04T12:29:23;8.40;99.90
63260;DHT22;49390;51.380;0.098;2023-12-04T12:31:51;8.40;99.90
63260;DHT22;49390;51.380;0.098;2023-12-04T12:34:18;8.40;99.90
63260;DHT22;49390;51.380;0.098;2023-12-04T12:36:47;8.30;99.90
63260;DHT22;49390;51.380;0.098;2023-12-04T12:39:15;8.30;99.90
63260;DHT22;49390;51.380;0.098;2023-12-04T12:41:49;8.30;99.90
63260;DHT22;49390;51.380;0.098;2023-12-04T12:44:18;8.30;99.90
63260;DHT22;49390;51.380;0.098;2023-12-04T12:46:50;8.30;99.90
63260;DHT22;49390;51.380;0.098;2023-12-04T12:49:19;8.40;99.90
63260;DHT22;49390;51.380;0.098;2023-12-04T12:52:05;8.30;99.90
63260;DHT22;49390;51.380;0.098;2023-12-04T12:54:40;8.40;99.90
63260;DHT22;49390;51.380;0.098;2023-12-04T12:57:09;8.40;99.90
63260;DHT22;49390;51.380;0.098;2023-12-04T12:59:40;8.40;99.90
63260;DHT22;49390;51.380;0.098;2023-12-04T13:02:08;8.30;99.90
63260;DHT22;49390;51.380;0.098;2023-12-04T13:04:42;8.30;99.90
63260;DHT22;49390;51.380;0.098;2023-12-04T13:07:11;8.30;99.90
63260;DHT22;49390;51.380;0.098;2023-12-04T13:09:39;8.40;99.90
63260;DHT22;49390;51.380;0.098;2023-12-04T13:12:08;8.30;99.90
63260;DHT22;49390;51.380;0.098;2023-12-04T13:14:38;8.30;99.90
63260;DHT22;49390;51.380;0.098;2023-12-04T13:17:07;8.30;99.90
63260;DHT22;49390;51.380;0.098;2023-12-04T13:19:34;8.30;99.90
63260;DHT22;49390;51.380;0.098;2023-12-04T13:22:03;8.30;99.90
63260;DHT22;49390;51.380;0.098;2023-12-04T13:24:32;8.30;99.90
63260;DHT22;49390;51.380;0.098;2023-12-04T13:27:00;8.30;99.90
63260;DHT22;49390;51.380;0.098;2023-12-04T13:29:28;8.30;99.90
63260;DHT22;49390;51.380;0.098;2023-12-04T13:31:56;8.20;99.90
63260;DHT22;49390;51.380;0.098;2023-12-04T13:34:24;8.20;99.90
63260;DHT22;49390;51.380;0.098;2023-12-04T13:36:53;8.30;99.90
63260;DHT22;49390;51.380;0.098;2023-12-04T13:39:21;8.20;99.90
63260;DHT22;49390;51.380;0.098;2023-12-04T13:41:56;8.20;99.90
63260;DHT22;49390;51.380;0.098;2023-12-04T13:44:43;8.20;99.90
63260;DHT22;49390;51.380;0.098;2023-12-04T13:47:11;8.20;99.90
63260;DHT22;49390;51.380;0.098;2023-12-04T13:49:39;8.20;99.90
63260;DHT22;49390;51.380;0.098;2023-12-04T13:52:07;8.20;99.90
63260;DHT22;49390;51.380;0.098;2023-12-04T13:54:36;8.30;99.90
63260;DHT22;49390;51.380;0.098;2023-12-04T13:57:16;8.30;99.90
63260;DHT22;49390;51.380;0.098;2023-12-04T14:00:00;8.30;99.90
63260;DHT22;49390;51.380;0.098;2023-12-04T14:02:31;8.20;99.90
63260;DHT22;49390;51.380;0.098;2023-12-04T14:05:00;8.30;99.90
63260;DHT22;49390;51.380;0.098;2023-12-04T14:07:28;8.30;99.90
63260;DHT22;49390;51.380;0.098;2023-12-04T14:09:56;8.30;99.90
63260;DHT22;49390;51.380;0.098;2023-12-04T14:12:24;8.30;99.90
63260;DHT22;49390;51.380;0.098;2023-12-04T14:14:53;8.20;99.90
63260;DHT22;49390;51.380;0.098;2023-12-04T14:17:25;8.30;99.90
63260;DHT22;49390;51.380;0.098;2023-12-04T14:19:53;8.30;99.90
63260;DHT22;49390;51.380;0.098;2023-12-04T14:22:21;8.30;99.90
63260;DHT22;49390;51.380;0.098;2023-12-04T14:24:49;8.20;99.90
63260;DHT22;49390;51.380;0.098;2023-12-04T14:27:17;8.30;99.90
63260;DHT22;49390;51.380;0.098;2023-12-04T14:29:45;8.20;99.90
63260;DHT22;49390;51.380;0.098;2023-12-04T14:32:13;8.10;99.90
63260;DHT22;49390;51.380;0.098;2023-12-04T14:34:41;8.10;99.90
63260;DHT22;49390;51.380;0.098;2023-12-04T14:37:10;8.10;99.90
63260;DHT22;49390;51.380;0.098;2023-12-04T14:39:37;8.10;99.90
63260;DHT22;49390;51.380;0.098;2023-12-04T14:42:05;8.00;99.90
63260;DHT22;49390;51.380;0.098;2023-12-04T14:44:33;8.00;99.90
63260;DHT22;49390;51.380;0.098;2023-12-04T14:47:01;7.90;99.90
63260;DHT22;49390;51.380;0.098;2023-12-04T14:49:29;8.00;99.90
63260;DHT22;49390;51.380;0.098;2023-12-04T14:51:57;7.90;99.90
63260;DHT22;49390;51.380;0.098;2023-12-04T14:54:28;7.90;99.90
63260;DHT22;49390;51.380;0.098;2023-12-04T14:57:19;7.90;99.90
63260;DHT22;49390;51.380;0.098;2023-12-04T14:59:47;7.80;99.90
63260;DHT22;49390;51.380;0.098;2023-12-04T15:02:54;7.80;99.90
63260;DHT22;49390;51.380;0.098;2023-12-04T15:05:28;7.80;99.90
63260;DHT22;49390;51.380;0.098;2023-12-04T15:08:25;7.70;99.90
63260;DHT22;49390;51.380;0.098;2023-12-04T15:11:11;7.70;99.90
63260;DHT22;49390;51.380;0.098;2023-12-04T15:13:51;7.70;99.90
63260;DHT22;49390;51.380;0.098;2023-12-04T15:16:57;7.70;99.90
63260;DHT22;49390;51.380;0.098;2023-12-04T15:19:46;7.70;99.90
63260;DHT22;49390;51.380;0.098;2023-12-04T15:22:32;7.60;99.90
63260;DHT22;49390;51.380;0.098;2023-12-04T15:25:00;7.60;99.90
63260;DHT22;49390;51.380;0.098;2023-12-04T15:27:28;7.70;99.90
63260;DHT22;49390;51.380;0.098;2023-12-04T15:29:56;7.70;99.90
63260;DHT22;49390;51.380;0.098;2023-12-04T15:32:23;7.60;99.90
63260;DHT22;49390;51.380;0.098;2023-12-04T15:34:52;7.60;99.90
63260;DHT22;49390;51.380;0.098;2023-12-04T15:37:20;7.60;99.90
63260;DHT22;49390;51.380;0.098;2023-12-04T15:39:48;7.70;99.90
63260;DHT22;49390;51.380;0.098;2023-12-04T15:42:17;7.70;99.90
63260;DHT22;49390;51.380;0.098;2023-12-04T15:44:45;7.70;99.90
63260;DHT22;49390;51.380;0.098;2023-12-04T15:47:13;7.60;99.90
63260;DHT22;49390;51.380;0.098;2023-12-04T15:50:07;7.50;99.90
63260;DHT22;49390;51.380;0.098;2023-12-04T15:52:35;7.60;99.90
63260;DHT22;49390;51.380;0.098;2023-12-04T15:55:12;7.60;99.90
63260;DHT22;49390;51.380;0.098;2023-12-04T15:58:25;7.50;99.90
63260;DHT22;49390;51.380;0.098;2023-12-04T16:01:00;7.60;99.90
63260;DHT22;49390;51.380;0.098;2023-12-04T16:03:38;7.50;99.90
63260;DHT22;49390;51.380;0.098;2023-12-04T16:13:13;7.40;99.90
63260;DHT22;49390;51.380;0.098;2023-12-04T16:15:44;7.40;99.90
63260;DHT22;49390;51.380;0.098;2023-12-04T16:18:29;7.40;99.90
63260;DHT22;49390;51.380;0.098;2023-12-04T16:24:09;7.30;99.90
63260;DHT22;49390;51.380;0.098;2023-12-04T16:26:39;7.30;99.90
63260;DHT22;49390;51.380;0.098;2023-12-04T16:29:07;7.30;99.90